createdAt,value
2023-02-11T00:01:19.424Z,14.07
2023-02-11T00:03:46.082Z,14.90
2023-02-11T00:06:12.745Z,10.80
2023-02-11T00:08:39.808Z,12.83
2023-02-11T00:11:06.679Z,11.77
2023-02-11T00:13:35.694Z,15.93
2023-02-11T00:16:08.222Z,9.90
2023-02-11T00:18:36.490Z,16.53
2023-02-11T00:21:08.675Z,10.07
2023-02-11T00:23:42.426Z,11.70
2023-02-11T00:26:23.075Z,17.10
2023-02-11T00:28:51.458Z,17.20
2023-02-11T00:31:19.598Z,11.90
2023-02-11T00:33:46.777Z,13.60
2023-02-11T00:36:19.351Z,14.10
2023-02-11T00:38:47.826Z,11.27
2023-02-11T00:41:15.464Z,12.90
2023-02-11T00:43:42.136Z,13.67
2023-02-11T00:46:11.892Z,11.67
2023-02-11T00:48:38.695Z,9.77
2023-02-11T00:51:05.830Z,17.17
2023-02-11T00:53:33.138Z,11.73
2023-02-11T00:56:01.066Z,15.37
2023-02-11T00:58:30.046Z,12.33
2023-02-11T01:00:56.828Z,11.03
2023-02-11T01:03:24.018Z,11.47
2023-02-11T01:05:51.484Z,11.37
2023-02-11T01:08:18.325Z,14.70
2023-02-11T01:10:53.341Z,12.70
2023-02-11T01:13:20.006Z,16.23
2023-02-11T01:15:46.688Z,12.13
2023-02-11T01:18:13.256Z,16.00
2023-02-11T01:20:39.753Z,16.60
2023-02-11T01:23:06.344Z,11.53
2023-02-11T01:25:32.917Z,13.53
2023-02-11T01:27:59.493Z,11.53
2023-02-11T01:30:33.445Z,16.90
2023-02-11T01:33:00.025Z,12.80
2023-02-11T01:35:29.558Z,13.20
2023-02-11T01:37:56.193Z,10.20
2023-02-11T01:40:22.792Z,14.10
2023-02-11T01:42:51.100Z,15.77
2023-02-11T01:45:47.037Z,19.07
2023-02-11T01:48:22.415Z,16.60
2023-02-11T01:50:52.777Z,13.70
2023-02-11T01:53:38.096Z,17.13
2023-02-11T01:56:24.562Z,14.37
2023-02-11T01:58:53.389Z,10.43
2023-02-11T02:01:25.702Z,15.30
2023-02-11T02:03:56.483Z,13.27
2023-02-11T02:06:29.575Z,17.23
2023-02-11T02:09:03.369Z,18.47
2023-02-11T02:11:29.976Z,12.57
2023-02-11T02:13:56.619Z,14.87
2023-02-11T02:16:29.910Z,13.67
2023-02-11T02:19:19.535Z,10.93
2023-02-11T02:22:22.080Z,14.90
2023-02-11T02:25:10.575Z,12.50
2023-02-11T02:27:57.904Z,10.80
2023-02-11T02:30:36.169Z,15.00
2023-02-11T02:33:22.420Z,12.17
2023-02-11T02:35:56.410Z,12.53
2023-02-11T02:38:31.457Z,11.47
2023-02-11T02:41:11.218Z,12.80
2023-02-11T02:43:45.160Z,13.17
2023-02-11T02:46:14.363Z,11.67
2023-02-11T02:48:43.643Z,12.10
2023-02-11T02:51:31.525Z,13.20
2023-02-11T02:54:16.310Z,19.53
2023-02-11T02:56:52.770Z,12.17
2023-02-11T02:59:58.074Z,17.00
2023-02-11T03:02:39.732Z,14.37
2023-02-11T03:05:12.837Z,16.80
2023-02-11T03:07:50.977Z,9.70
2023-02-11T03:10:25.135Z,11.20
2023-02-11T03:12:53.699Z,10.63
2023-02-11T03:15:23.258Z,13.37
2023-02-11T03:17:53.169Z,17.73
2023-02-11T03:20:25.294Z,10.77
2023-02-11T03:23:29.470Z,12.23
2023-02-11T03:26:02.749Z,16.50
2023-02-11T03:28:53.469Z,11.53
2023-02-11T03:31:47.779Z,14.80
2023-02-11T03:34:33.517Z,17.97
2023-02-11T03:37:06.575Z,11.77
2023-02-11T03:39:40.856Z,14.03
2023-02-11T03:42:10.944Z,16.93
2023-02-11T03:44:46.519Z,12.90
2023-02-11T03:47:15.563Z,14.80
2023-02-11T03:49:45.093Z,16.93
2023-02-11T03:52:13.048Z,16.17
2023-02-11T03:54:42.808Z,15.20
2023-02-11T03:57:09.329Z,17.60
2023-02-11T03:59:53.902Z,15.67
2023-02-11T04:02:25.156Z,17.97
2023-02-11T04:04:51.857Z,21.50
2023-02-11T04:07:18.566Z,15.63
2023-02-11T04:09:45.070Z,18.17
2023-02-11T04:12:11.946Z,16.43
2023-02-11T04:14:38.659Z,16.80
2023-02-11T04:17:05.627Z,14.37
2023-02-11T04:19:32.221Z,18.70
2023-02-11T04:21:58.990Z,21.77
2023-02-11T04:24:29.199Z,17.93
2023-02-11T04:26:55.842Z,17.63
2023-02-11T04:29:22.605Z,14.97
2023-02-11T04:31:49.416Z,17.37
2023-02-11T04:34:17.692Z,19.10
2023-02-11T04:36:44.383Z,19.00
2023-02-11T04:39:11.009Z,17.13
2023-02-11T04:41:37.642Z,18.73
2023-02-11T04:44:06.828Z,16.47
2023-02-11T04:46:33.382Z,17.03
2023-02-11T04:49:07.494Z,19.53
2023-02-11T04:51:34.005Z,17.07
2023-02-11T04:54:00.564Z,14.90
2023-02-11T04:56:29.085Z,18.13
2023-02-11T04:58:55.685Z,19.10
2023-02-11T05:01:22.371Z,19.60
2023-02-11T05:03:49.490Z,15.10
2023-02-11T05:06:18.050Z,24.20
2023-02-11T05:08:44.582Z,17.60
2023-02-11T05:11:19.796Z,16.73
2023-02-11T05:13:46.790Z,14.60
2023-02-11T05:16:13.982Z,18.40
2023-02-11T05:18:42.708Z,24.73
2023-02-11T05:21:11.176Z,16.70
2023-02-11T05:23:39.265Z,16.77
2023-02-11T05:26:06.728Z,21.73
2023-02-11T05:28:33.552Z,14.77
2023-02-11T05:31:00.160Z,17.17
2023-02-11T05:33:26.736Z,18.10
2023-02-11T05:35:58.654Z,16.20
2023-02-11T05:38:25.842Z,17.33
2023-02-11T05:40:52.382Z,16.23
2023-02-11T05:43:18.944Z,18.50
2023-02-11T05:45:45.502Z,19.27
2023-02-11T05:48:12.054Z,16.50
2023-02-11T05:50:38.945Z,19.50
2023-02-11T05:53:05.904Z,21.97
2023-02-11T05:55:35.052Z,21.13
2023-02-11T05:58:01.937Z,21.00
2023-02-11T06:00:28.511Z,20.43
2023-02-11T06:02:55.309Z,19.37
2023-02-11T06:05:22.089Z,15.50
2023-02-11T06:07:48.566Z,19.43
2023-02-11T06:10:15.146Z,14.77
2023-02-11T06:12:41.808Z,18.47
2023-02-11T06:15:08.750Z,17.10
2023-02-11T06:17:36.722Z,18.33
2023-02-11T06:20:05.904Z,17.27
2023-02-11T06:22:32.836Z,16.00
2023-02-11T06:25:01.978Z,21.03
2023-02-11T06:27:29.528Z,18.30
2023-02-11T06:29:56.144Z,14.47
2023-02-11T06:32:42.660Z,17.80
2023-02-11T06:35:11.761Z,16.63
2023-02-11T06:37:39.056Z,21.67
2023-02-11T06:40:06.279Z,17.17
2023-02-11T06:42:37.169Z,18.53
2023-02-11T06:45:06.179Z,14.77
2023-02-11T06:47:32.895Z,15.37
2023-02-11T06:49:59.460Z,14.40
2023-02-11T06:52:26.171Z,17.40
2023-02-11T06:55:00.174Z,16.77
2023-02-11T06:57:44.446Z,18.27
2023-02-11T07:00:14.399Z,18.90
2023-02-11T07:02:40.933Z,20.30
2023-02-11T07:05:07.986Z,18.80
2023-02-11T07:07:34.577Z,17.97
2023-02-11T07:10:03.090Z,18.90
2023-02-11T07:12:30.643Z,14.23
2023-02-11T07:14:57.197Z,16.87
2023-02-11T07:17:23.806Z,16.47
2023-02-11T07:19:51.366Z,16.77
2023-02-11T07:22:17.888Z,18.13
2023-02-11T07:24:44.624Z,21.47
2023-02-11T07:27:11.160Z,17.63
2023-02-11T07:29:37.701Z,18.67
2023-02-11T07:32:14.895Z,14.17
2023-02-11T07:34:41.459Z,13.47
2023-02-11T07:37:07.950Z,17.83
2023-02-11T07:39:34.459Z,20.57
2023-02-11T07:42:00.968Z,24.37
2023-02-11T07:44:27.460Z,15.57
2023-02-11T07:46:54.014Z,17.00
2023-02-11T07:49:23.121Z,22.90
2023-02-11T07:51:51.298Z,15.83
2023-02-11T07:54:18.105Z,16.77
2023-02-11T07:56:44.756Z,18.37
2023-02-11T07:59:12.095Z,18.43
2023-02-11T08:01:38.689Z,14.03
2023-02-11T08:04:05.432Z,14.43
2023-02-11T08:06:43.318Z,18.47
2023-02-11T08:09:16.114Z,20.57
2023-02-11T08:11:43.103Z,21.73
2023-02-11T08:14:10.120Z,18.63
2023-02-11T08:16:39.191Z,23.73
2023-02-11T08:19:11.022Z,16.97
2023-02-11T08:21:40.367Z,16.07
2023-02-11T08:24:07.489Z,18.87
2023-02-11T08:26:35.010Z,18.77
2023-02-11T08:29:05.651Z,21.03
2023-02-11T08:31:38.041Z,16.43
2023-02-11T08:34:04.998Z,16.37
2023-02-11T08:36:37.236Z,15.43
2023-02-11T08:39:22.478Z,18.23
2023-02-11T08:41:52.232Z,15.93
2023-02-11T08:44:20.067Z,20.00
2023-02-11T08:46:47.516Z,18.17
2023-02-11T08:49:14.500Z,19.90
2023-02-11T08:51:41.202Z,24.47
2023-02-11T08:54:12.199Z,15.10
2023-02-11T08:56:39.418Z,15.93
2023-02-11T08:59:07.182Z,17.03
2023-02-11T09:01:33.819Z,17.87
2023-02-11T09:04:01.140Z,23.37
2023-02-11T09:06:28.230Z,17.67
2023-02-11T09:08:56.790Z,17.40
2023-02-11T09:11:31.030Z,20.07
2023-02-11T09:13:59.728Z,16.00
2023-02-11T09:16:30.007Z,19.10
2023-02-11T09:18:58.644Z,19.03
2023-02-11T09:21:25.836Z,18.00
2023-02-11T09:23:52.513Z,13.90
2023-02-11T09:26:22.574Z,14.77
2023-02-11T09:28:50.084Z,17.60
2023-02-11T09:31:19.929Z,16.80
2023-02-11T09:33:49.559Z,19.87
2023-02-11T09:36:28.918Z,19.87
2023-02-11T09:38:57.725Z,14.50
2023-02-11T09:41:27.124Z,15.73
2023-02-11T09:43:57.578Z,14.80
2023-02-11T09:46:26.154Z,16.07
2023-02-11T09:48:55.897Z,16.83
2023-02-11T09:51:53.554Z,19.30
2023-02-11T09:54:30.351Z,9.70
2023-02-11T09:56:56.907Z,14.10
2023-02-11T09:59:24.672Z,12.63
2023-02-11T10:01:58.842Z,13.43
2023-02-11T10:04:48.511Z,16.93
2023-02-11T10:07:39.954Z,10.93
2023-02-11T10:10:12.266Z,13.17
2023-02-11T10:12:55.552Z,16.47
2023-02-11T10:15:37.240Z,12.63
2023-02-11T10:18:11.894Z,11.57
2023-02-11T10:20:46.138Z,11.87
2023-02-11T10:23:20.778Z,14.07
2023-02-11T10:25:52.873Z,10.87
2023-02-11T10:28:29.955Z,14.73
2023-02-11T10:31:01.077Z,12.83
2023-02-11T10:33:51.579Z,12.17
2023-02-11T10:36:20.831Z,12.50
2023-02-11T10:38:47.347Z,11.37
2023-02-11T10:41:20.612Z,13.03
2023-02-11T10:43:47.090Z,11.47
2023-02-11T10:46:19.501Z,10.73
2023-02-11T10:48:51.787Z,11.77
2023-02-11T10:51:25.121Z,13.53
2023-02-11T10:54:04.012Z,10.73
2023-02-11T10:56:40.030Z,10.40
2023-02-11T10:59:33.085Z,10.57
2023-02-11T11:02:18.457Z,12.90
2023-02-11T11:04:45.827Z,13.73
2023-02-11T11:07:24.875Z,19.10
2023-02-11T11:09:59.651Z,14.77
2023-02-11T11:12:48.775Z,12.07
2023-02-11T11:15:25.819Z,10.33
2023-02-11T11:18:20.973Z,12.07
2023-02-11T11:21:00.941Z,14.63
2023-02-11T11:23:29.876Z,16.30
2023-02-11T11:26:08.399Z,12.03
2023-02-11T11:28:53.271Z,15.10
2023-02-11T11:32:05.844Z,12.27
2023-02-11T11:34:34.035Z,13.27
2023-02-11T11:37:10.330Z,12.93
2023-02-11T11:39:37.145Z,12.40
2023-02-11T11:42:06.177Z,11.67
2023-02-11T11:44:37.435Z,11.47
2023-02-11T11:47:16.157Z,10.67
2023-02-11T11:50:10.117Z,8.80
2023-02-11T11:53:04.647Z,8.57
2023-02-11T11:55:38.212Z,11.97
2023-02-11T11:58:06.900Z,10.73
2023-02-11T12:01:00.828Z,8.07
2023-02-11T12:04:02.520Z,10.30
2023-02-11T12:07:06.689Z,8.63
2023-02-11T12:09:49.365Z,10.33
2023-02-11T12:12:32.745Z,9.60
2023-02-11T12:15:23.919Z,7.67
2023-02-11T12:17:56.435Z,9.23
2023-02-11T12:20:34.683Z,10.67
2023-02-11T12:23:25.954Z,7.80
2023-02-11T12:26:08.266Z,11.17
2023-02-11T12:29:01.432Z,9.87
2023-02-11T12:31:39.114Z,10.67
2023-02-11T12:34:23.841Z,8.93
2023-02-11T12:37:21.378Z,10.43
2023-02-11T12:39:47.750Z,10.47
2023-02-11T12:42:57.834Z,12.80
2023-02-11T12:45:35.888Z,8.77
2023-02-11T12:48:22.894Z,8.73
2023-02-11T12:51:15.057Z,9.53
2023-02-11T12:54:06.932Z,9.63
2023-02-11T12:56:44.616Z,8.67
2023-02-11T12:59:44.097Z,8.80
2023-02-11T13:02:21.344Z,13.77
2023-02-11T13:04:56.996Z,7.73
2023-02-11T13:07:33.297Z,7.73
2023-02-11T13:10:31.654Z,9.60
2023-02-11T13:13:18.591Z,11.97
2023-02-11T13:15:57.380Z,9.87
2023-02-11T13:18:44.983Z,9.23
2023-02-11T13:21:14.527Z,8.77
2023-02-11T13:24:08.392Z,9.37
2023-02-11T13:26:39.503Z,9.60
2023-02-11T13:29:23.764Z,8.87
2023-02-11T13:32:06.108Z,13.07
2023-02-11T13:34:41.858Z,9.17
2023-02-11T13:37:20.716Z,12.13
2023-02-11T13:40:07.568Z,10.47
2023-02-11T13:42:49.961Z,11.13
2023-02-11T13:45:33.772Z,9.43
2023-02-11T13:48:05.556Z,11.97
2023-02-11T13:50:39.655Z,11.43
2023-02-11T13:53:08.809Z,10.03
2023-02-11T13:55:35.763Z,11.60
2023-02-11T13:58:10.789Z,10.37
2023-02-11T14:00:37.206Z,10.37
2023-02-11T14:03:31.439Z,9.73
2023-02-11T14:06:28.869Z,12.13
2023-02-11T14:09:21.511Z,8.93
2023-02-11T14:11:52.705Z,10.10
2023-02-11T14:14:24.034Z,9.33
2023-02-11T14:16:59.810Z,13.83
2023-02-11T14:19:40.775Z,9.00
2023-02-11T14:22:27.654Z,9.03
2023-02-11T14:24:57.544Z,11.90
2023-02-11T14:27:48.963Z,9.03
2023-02-11T14:30:54.210Z,12.30
2023-02-11T14:33:39.546Z,9.60
2023-02-11T14:36:17.896Z,10.07
2023-02-11T14:38:52.928Z,9.13
2023-02-11T14:41:29.406Z,16.03
2023-02-11T14:43:59.811Z,10.37
2023-02-11T14:46:30.743Z,12.60
2023-02-11T14:49:01.254Z,10.03
2023-02-11T14:51:38.523Z,9.37
2023-02-11T14:54:15.321Z,12.20
2023-02-11T14:56:42.404Z,12.23
2023-02-11T14:59:25.561Z,9.23
2023-02-11T15:01:56.566Z,10.93
2023-02-11T15:04:26.054Z,10.13
2023-02-11T15:06:53.852Z,11.23
2023-02-11T15:09:45.416Z,10.70
2023-02-11T15:12:19.974Z,13.33
2023-02-11T15:14:55.319Z,9.23
2023-02-11T15:17:27.689Z,12.53
2023-02-11T15:19:57.363Z,11.23
2023-02-11T15:22:29.277Z,18.83
2023-02-11T15:25:10.610Z,14.17
2023-02-11T15:27:46.385Z,9.57
2023-02-11T15:30:22.040Z,13.17
2023-02-11T15:32:58.737Z,11.40
2023-02-11T15:35:36.678Z,13.03
2023-02-11T15:38:04.544Z,12.33
2023-02-11T15:40:33.990Z,12.90
2023-02-11T15:43:08.481Z,12.67
2023-02-11T15:45:54.171Z,13.60
2023-02-11T15:48:35.600Z,10.33
2023-02-11T15:51:11.755Z,15.63
2023-02-11T15:53:42.405Z,14.63
2023-02-11T15:56:25.461Z,13.13
2023-02-11T15:58:55.885Z,20.57
2023-02-11T16:01:33.617Z,12.63
2023-02-11T16:04:01.359Z,11.10
2023-02-11T16:06:42.833Z,12.53
2023-02-11T16:09:10.140Z,8.70
2023-02-11T16:11:45.850Z,15.93
2023-02-11T16:14:27.493Z,19.73
2023-02-11T16:16:57.870Z,9.97
2023-02-11T16:19:26.969Z,12.27
2023-02-11T16:22:03.098Z,13.23
2023-02-11T16:24:35.203Z,13.30
2023-02-11T16:27:08.142Z,14.63
2023-02-11T16:29:44.241Z,9.70
2023-02-11T16:32:16.091Z,10.97
2023-02-11T16:34:44.502Z,8.83
2023-02-11T16:37:11.058Z,10.73
2023-02-11T16:39:37.606Z,12.37
2023-02-11T16:42:07.090Z,8.83
2023-02-11T16:44:42.314Z,9.60
2023-02-11T16:47:23.467Z,9.87
2023-02-11T16:49:50.184Z,11.00
2023-02-11T16:52:20.577Z,12.57
2023-02-11T16:54:47.439Z,10.17
2023-02-11T16:57:19.672Z,9.87
2023-02-11T16:59:46.922Z,11.53
2023-02-11T17:02:26.325Z,9.03
2023-02-11T17:04:54.634Z,12.27
2023-02-11T17:07:21.719Z,9.93
2023-02-11T17:09:48.288Z,8.30
2023-02-11T17:12:14.723Z,11.00
2023-02-11T17:14:48.756Z,9.07
2023-02-11T17:17:16.192Z,10.13
2023-02-11T17:19:42.654Z,10.63
2023-02-11T17:22:11.244Z,10.30
2023-02-11T17:24:37.730Z,9.70
2023-02-11T17:27:09.084Z,7.13
2023-02-11T17:29:35.566Z,13.90
2023-02-11T17:32:01.984Z,9.80
2023-02-11T17:34:29.261Z,9.33
2023-02-11T17:36:56.007Z,9.80
2023-02-11T17:39:22.420Z,9.20
2023-02-11T17:41:48.907Z,10.70
2023-02-11T17:44:16.737Z,8.60
2023-02-11T17:46:43.514Z,8.57
2023-02-11T17:49:13.197Z,11.77
2023-02-11T17:51:40.133Z,7.77
2023-02-11T17:54:10.742Z,9.67
2023-02-11T17:56:38.493Z,8.87
2023-02-11T17:59:06.804Z,7.20
2023-02-11T18:01:37.165Z,12.40
2023-02-11T18:04:04.563Z,8.77
2023-02-11T18:06:33.731Z,11.30
2023-02-11T18:09:02.519Z,8.47
2023-02-11T18:11:30.490Z,10.27
2023-02-11T18:13:59.804Z,9.53
2023-02-11T18:16:28.785Z,8.53
2023-02-11T18:18:59.669Z,8.57
2023-02-11T18:21:26.528Z,7.73
2023-02-11T18:23:53.698Z,7.57
2023-02-11T18:26:21.928Z,12.73
2023-02-11T18:28:48.635Z,9.47
2023-02-11T18:31:15.305Z,7.60
2023-02-11T18:33:42.481Z,9.30
2023-02-11T18:36:12.835Z,8.27
2023-02-11T18:38:40.257Z,11.87
2023-02-11T18:41:07.514Z,9.37
2023-02-11T18:43:37.205Z,9.37
2023-02-11T18:46:09.533Z,12.70
2023-02-11T18:48:36.495Z,10.50
2023-02-11T18:51:09.817Z,10.40
2023-02-11T18:53:36.471Z,13.90
2023-02-11T18:56:08.115Z,11.10
2023-02-11T18:58:34.665Z,12.67
2023-02-11T19:01:24.404Z,8.70
2023-02-11T19:03:51.507Z,12.70
2023-02-11T19:06:27.586Z,10.43
2023-02-11T19:08:59.021Z,14.37
2023-02-11T19:11:44.825Z,16.33
2023-02-11T19:14:11.477Z,13.40
2023-02-11T19:16:39.983Z,17.20
2023-02-11T19:19:07.515Z,10.90
2023-02-11T19:21:34.476Z,11.67
2023-02-11T19:24:02.278Z,10.63
2023-02-11T19:26:29.779Z,14.23
2023-02-11T19:28:58.096Z,8.47
2023-02-11T19:31:24.685Z,12.00
2023-02-11T19:33:51.744Z,12.17
2023-02-11T19:36:18.650Z,12.00
2023-02-11T19:38:45.336Z,9.57
2023-02-11T19:41:22.190Z,18.83
2023-02-11T19:43:52.932Z,11.50
2023-02-11T19:46:23.269Z,11.90
2023-02-11T19:48:59.464Z,10.27
2023-02-11T19:51:26.044Z,11.93
2023-02-11T19:53:52.588Z,13.47
2023-02-11T19:56:20.811Z,12.73
2023-02-11T19:58:47.746Z,13.80
2023-02-11T20:01:19.710Z,14.17
2023-02-11T20:03:50.152Z,13.20
2023-02-11T20:06:20.374Z,14.87
2023-02-11T20:08:46.858Z,13.40
2023-02-11T20:11:23.174Z,13.83
2023-02-11T20:13:49.809Z,13.87
2023-02-11T20:16:19.593Z,15.60
2023-02-11T20:18:49.140Z,15.87
2023-02-11T20:21:21.363Z,15.00
2023-02-11T20:23:50.017Z,16.27
2023-02-11T20:26:32.316Z,13.67
2023-02-11T20:29:02.177Z,16.43
2023-02-11T20:31:32.943Z,15.27
2023-02-11T20:34:00.955Z,13.97
2023-02-11T20:36:32.031Z,15.87
2023-02-11T20:39:02.333Z,15.90
2023-02-11T20:41:32.678Z,12.73
2023-02-11T20:44:01.717Z,14.57
2023-02-11T20:46:30.537Z,16.83
2023-02-11T20:48:57.646Z,16.47
2023-02-11T20:51:27.273Z,16.23
2023-02-11T20:54:17.747Z,17.93
2023-02-11T20:56:47.830Z,14.57
2023-02-11T20:59:17.568Z,18.73
2023-02-11T21:01:46.589Z,20.57
2023-02-11T21:04:19.389Z,14.17
2023-02-11T21:06:52.206Z,18.27
2023-02-11T21:09:21.800Z,15.43
2023-02-11T21:11:51.563Z,16.77
2023-02-11T21:14:19.126Z,14.07
2023-02-11T21:16:47.227Z,15.80
2023-02-11T21:19:23.428Z,17.03
2023-02-11T21:21:50.653Z,18.77
2023-02-11T21:24:17.578Z,16.67
2023-02-11T21:26:44.062Z,15.27
2023-02-11T21:29:10.737Z,18.57
2023-02-11T21:31:42.241Z,18.53
2023-02-11T21:34:10.468Z,14.17
2023-02-11T21:36:37.012Z,14.73
2023-02-11T21:39:41.528Z,17.47
2023-02-11T21:42:08.023Z,21.47
2023-02-11T21:44:52.073Z,18.13
2023-02-11T21:47:18.675Z,16.87
2023-02-11T21:49:45.929Z,16.80
2023-02-11T21:52:12.539Z,18.33
2023-02-11T21:54:53.396Z,15.87
2023-02-11T22:00:13.926Z,14.17
2023-02-11T22:02:40.538Z,13.77
2023-02-11T22:05:07.040Z,15.13
2023-02-11T22:07:38.611Z,23.00
2023-02-11T22:10:05.538Z,19.60
2023-02-11T22:12:32.039Z,21.23
2023-02-11T22:14:58.524Z,15.90
2023-02-11T22:17:25.062Z,20.67
2023-02-11T22:19:51.618Z,14.23
2023-02-11T22:22:19.688Z,13.97
2023-02-11T22:24:46.481Z,22.17
2023-02-11T22:27:13.740Z,16.07
2023-02-11T22:29:40.399Z,17.90
2023-02-11T22:32:07.076Z,15.93
2023-02-11T22:34:44.126Z,14.67
2023-02-11T22:37:10.638Z,13.93
2023-02-11T22:39:37.275Z,19.93
2023-02-11T22:42:03.862Z,15.23
2023-02-11T22:44:36.541Z,17.83
2023-02-11T22:47:03.174Z,19.07
2023-02-11T22:49:32.431Z,16.33
2023-02-11T22:51:59.946Z,17.70
2023-02-11T22:54:27.506Z,14.40
2023-02-11T22:57:06.851Z,17.67
2023-02-11T22:59:33.359Z,18.27
2023-02-11T23:01:59.907Z,17.97
2023-02-11T23:04:26.436Z,17.70
2023-02-11T23:06:52.925Z,16.33
2023-02-11T23:09:20.753Z,21.60
2023-02-11T23:11:49.406Z,16.67
2023-02-11T23:14:15.922Z,15.80
2023-02-11T23:16:42.474Z,14.53
2023-02-11T23:19:10.281Z,21.07
2023-02-11T23:21:45.960Z,14.30
2023-02-11T23:24:14.250Z,17.00
2023-02-11T23:26:42.001Z,20.63
2023-02-11T23:29:09.655Z,18.20
2023-02-11T23:31:39.812Z,17.37
2023-02-11T23:34:09.693Z,13.37
2023-02-11T23:36:36.517Z,18.43
2023-02-11T23:39:04.059Z,14.33
2023-02-11T23:41:30.604Z,12.10
2023-02-11T23:43:57.970Z,15.60
2023-02-11T23:46:26.322Z,15.07
2023-02-11T23:48:56.556Z,17.37
2023-02-11T23:51:24.070Z,14.20
2023-02-11T23:53:51.071Z,13.63
2023-02-11T23:56:20.585Z,12.57
2023-02-11T23:58:52.872Z,16.20
